< < Back
Terminal Aerodrome Forecast


Current Version              Previous Versions:   1  2  3  4  5  6  7  8  9  

Terminal Aerodrome Forecast

049
FTUS44 KMOB 030543
TAFPNS
TAF
KPNS 030543Z 0306/0406 25005KT P6SM FEW080
     FM031800 21011KT P6SM FEW060 SCT350=

Latest METAR

443
SAUS70 KWBC 040300 RRF
MTRPNS
METAR KPNS 040253Z 28008KT 10SM CLR 28/24 A2991 RMK AO2 SLP130 T02780239
53011


USA.gov is the U.S. government's official web portal to all federal, state and local government web resources and services.